sensor_id;sensor_type;location;lat;lon;timestamp;pressure;altitude;pressure_sealevel;temperature
15079;BMP180;6932;51.438;5.470;2023-06-24T00:02:06;102080.00;;;26.80
15079;BMP180;6932;51.438;5.470;2023-06-24T00:04:32;102077.00;;;26.80
15079;BMP180;6932;51.438;5.470;2023-06-24T00:07:00;102080.00;;;26.70
15079;BMP180;6932;51.438;5.470;2023-06-24T00:09:29;102077.00;;;26.70
15079;BMP180;6932;51.438;5.470;2023-06-24T00:11:58;102077.00;;;26.70
15079;BMP180;6932;51.438;5.470;2023-06-24T00:14:25;102074.00;;;26.70
15079;BMP180;6932;51.438;5.470;2023-06-24T00:16:55;102077.00;;;26.70
15079;BMP180;6932;51.438;5.470;2023-06-24T00:19:25;102082.00;;;26.70
15079;BMP180;6932;51.438;5.470;2023-06-24T00:21:52;102087.00;;;26.70
15079;BMP180;6932;51.438;5.470;2023-06-24T00:24:22;102085.00;;;26.70
15079;BMP180;6932;51.438;5.470;2023-06-24T00:26:53;102081.00;;;26.70
15079;BMP180;6932;51.438;5.470;2023-06-24T00:29:19;102077.00;;;26.70
15079;BMP180;6932;51.438;5.470;2023-06-24T00:31:45;102072.00;;;26.70
15079;BMP180;6932;51.438;5.470;2023-06-24T00:34:11;102077.00;;;26.70
15079;BMP180;6932;51.438;5.470;2023-06-24T00:36:37;102070.00;;;26.70
15079;BMP180;6932;51.438;5.470;2023-06-24T00:39:04;102075.00;;;26.70
15079;BMP180;6932;51.438;5.470;2023-06-24T00:41:32;102082.00;;;26.70
15079;BMP180;6932;51.438;5.470;2023-06-24T00:43:59;102090.00;;;26.60
15079;BMP180;6932;51.438;5.470;2023-06-24T00:46:26;102083.00;;;26.60
15079;BMP180;6932;51.438;5.470;2023-06-24T00:48:55;102086.00;;;26.50
15079;BMP180;6932;51.438;5.470;2023-06-24T00:51:21;102084.00;;;26.50
15079;BMP180;6932;51.438;5.470;2023-06-24T00:53:53;102082.00;;;26.40
15079;BMP180;6932;51.438;5.470;2023-06-24T00:56:21;102081.00;;;26.30
15079;BMP180;6932;51.438;5.470;2023-06-24T00:58:52;102094.00;;;26.20
15079;BMP180;6932;51.438;5.470;2023-06-24T01:01:19;102091.00;;;26.20
15079;BMP180;6932;51.438;5.470;2023-06-24T01:03:45;102082.00;;;26.10
15079;BMP180;6932;51.438;5.470;2023-06-24T01:06:13;102090.00;;;26.00
15079;BMP180;6932;51.438;5.470;2023-06-24T01:08:38;102083.00;;;26.00
15079;BMP180;6932;51.438;5.470;2023-06-24T01:11:04;102077.00;;;25.90
15079;BMP180;6932;51.438;5.470;2023-06-24T01:13:30;102074.00;;;25.80
15079;BMP180;6932;51.438;5.470;2023-06-24T01:16:12;102074.00;;;25.80
15079;BMP180;6932;51.438;5.470;2023-06-24T01:18:50;102071.00;;;25.70
15079;BMP180;6932;51.438;5.470;2023-06-24T01:21:53;102073.00;;;25.70
15079;BMP180;6932;51.438;5.470;2023-06-24T01:28:10;102062.00;;;25.50
15079;BMP180;6932;51.438;5.470;2023-06-24T01:36:35;102065.00;;;25.50
15079;BMP180;6932;51.438;5.470;2023-06-24T01:39:08;102067.00;;;25.50
15079;BMP180;6932;51.438;5.470;2023-06-24T01:41:53;102064.00;;;25.60
15079;BMP180;6932;51.438;5.470;2023-06-24T01:44:21;102061.00;;;25.60
15079;BMP180;6932;51.438;5.470;2023-06-24T01:46:51;102068.00;;;25.60
15079;BMP180;6932;51.438;5.470;2023-06-24T01:49:21;102064.00;;;25.70
15079;BMP180;6932;51.438;5.470;2023-06-24T01:51:49;102066.00;;;25.70
15079;BMP180;6932;51.438;5.470;2023-06-24T01:54:18;102054.00;;;25.70
15079;BMP180;6932;51.438;5.470;2023-06-24T01:56:47;102059.00;;;25.70
15079;BMP180;6932;51.438;5.470;2023-06-24T01:59:17;102059.00;;;25.70
15079;BMP180;6932;51.438;5.470;2023-06-24T02:01:44;102056.00;;;25.70
15079;BMP180;6932;51.438;5.470;2023-06-24T02:04:12;102058.00;;;25.70
15079;BMP180;6932;51.438;5.470;2023-06-24T02:06:41;102055.00;;;25.60
15079;BMP180;6932;51.438;5.470;2023-06-24T02:09:09;102052.00;;;25.60
15079;BMP180;6932;51.438;5.470;2023-06-24T02:11:37;102054.00;;;25.60
15079;BMP180;6932;51.438;5.470;2023-06-24T02:14:05;102049.00;;;25.60
15079;BMP180;6932;51.438;5.470;2023-06-24T02:16:35;102056.00;;;25.60
15079;BMP180;6932;51.438;5.470;2023-06-24T02:19:01;102062.00;;;25.50
15079;BMP180;6932;51.438;5.470;2023-06-24T02:21:29;102050.00;;;25.50
15079;BMP180;6932;51.438;5.470;2023-06-24T02:23:56;102050.00;;;25.50
15079;BMP180;6932;51.438;5.470;2023-06-24T02:26:23;102051.00;;;25.50
15079;BMP180;6932;51.438;5.470;2023-06-24T02:28:52;102061.00;;;25.40
15079;BMP180;6932;51.438;5.470;2023-06-24T02:31:18;102062.00;;;25.50
15079;BMP180;6932;51.438;5.470;2023-06-24T02:33:44;102045.00;;;25.50
15079;BMP180;6932;51.438;5.470;2023-06-24T02:36:09;102048.00;;;25.50
15079;BMP180;6932;51.438;5.470;2023-06-24T02:38:36;102057.00;;;25.40
15079;BMP180;6932;51.438;5.470;2023-06-24T02:41:02;102051.00;;;25.40
15079;BMP180;6932;51.438;5.470;2023-06-24T02:43:30;102057.00;;;25.40
15079;BMP180;6932;51.438;5.470;2023-06-24T02:45:59;102054.00;;;25.40
15079;BMP180;6932;51.438;5.470;2023-06-24T02:48:30;102052.00;;;25.40
15079;BMP180;6932;51.438;5.470;2023-06-24T02:50:59;102055.00;;;25.40
15079;BMP180;6932;51.438;5.470;2023-06-24T02:53:25;102058.00;;;25.40
15079;BMP180;6932;51.438;5.470;2023-06-24T02:55:51;102056.00;;;25.40
15079;BMP180;6932;51.438;5.470;2023-06-24T02:58:20;102061.00;;;25.40
15079;BMP180;6932;51.438;5.470;2023-06-24T03:00:46;102066.00;;;25.40
15079;BMP180;6932;51.438;5.470;2023-06-24T03:03:13;102063.00;;;25.40
15079;BMP180;6932;51.438;5.470;2023-06-24T03:05:39;102078.00;;;25.40
15079;BMP180;6932;51.438;5.470;2023-06-24T03:08:05;102081.00;;;25.50
15079;BMP180;6932;51.438;5.470;2023-06-24T03:10:31;102077.00;;;25.50
15079;BMP180;6932;51.438;5.470;2023-06-24T03:12:57;102084.00;;;25.50
15079;BMP180;6932;51.438;5.470;2023-06-24T03:15:23;102076.00;;;25.50
15079;BMP180;6932;51.438;5.470;2023-06-24T03:17:51;102077.00;;;25.50
15079;BMP180;6932;51.438;5.470;2023-06-24T03:20:17;102068.00;;;25.50
15079;BMP180;6932;51.438;5.470;2023-06-24T03:22:42;102070.00;;;25.50
15079;BMP180;6932;51.438;5.470;2023-06-24T03:25:08;102075.00;;;25.50
15079;BMP180;6932;51.438;5.470;2023-06-24T03:27:34;102070.00;;;25.40
15079;BMP180;6932;51.438;5.470;2023-06-24T03:30:00;102073.00;;;25.40
15079;BMP180;6932;51.438;5.470;2023-06-24T03:32:26;102068.00;;;25.40
15079;BMP180;6932;51.438;5.470;2023-06-24T03:34:52;102073.00;;;25.30
15079;BMP180;6932;51.438;5.470;2023-06-24T03:37:17;102072.00;;;25.30
15079;BMP180;6932;51.438;5.470;2023-06-24T03:39:43;102075.00;;;25.30
15079;BMP180;6932;51.438;5.470;2023-06-24T03:42:09;102069.00;;;25.30
15079;BMP180;6932;51.438;5.470;2023-06-24T03:44:34;102062.00;;;25.30
15079;BMP180;6932;51.438;5.470;2023-06-24T03:47:00;102061.00;;;25.30
15079;BMP180;6932;51.438;5.470;2023-06-24T03:49:26;102058.00;;;25.30
15079;BMP180;6932;51.438;5.470;2023-06-24T03:51:51;102074.00;;;25.30
15079;BMP180;6932;51.438;5.470;2023-06-24T03:54:17;102073.00;;;25.30
15079;BMP180;6932;51.438;5.470;2023-06-24T03:56:43;102071.00;;;25.30
15079;BMP180;6932;51.438;5.470;2023-06-24T03:59:09;102080.00;;;25.30
15079;BMP180;6932;51.438;5.470;2023-06-24T04:01:35;102082.00;;;25.30
15079;BMP180;6932;51.438;5.470;2023-06-24T04:04:02;102089.00;;;25.30
15079;BMP180;6932;51.438;5.470;2023-06-24T04:06:28;102088.00;;;25.30
15079;BMP180;6932;51.438;5.470;2023-06-24T04:08:54;102081.00;;;25.30
15079;BMP180;6932;51.438;5.470;2023-06-24T04:11:20;102084.00;;;25.40
15079;BMP180;6932;51.438;5.470;2023-06-24T04:13:46;102086.00;;;25.40
15079;BMP180;6932;51.438;5.470;2023-06-24T04:16:14;102084.00;;;25.50
15079;BMP180;6932;51.438;5.470;2023-06-24T04:18:40;102085.00;;;25.50
15079;BMP180;6932;51.438;5.470;2023-06-24T04:21:06;102083.00;;;25.60
15079;BMP180;6932;51.438;5.470;2023-06-24T04:23:32;102080.00;;;25.60
15079;BMP180;6932;51.438;5.470;2023-06-24T04:25:59;102087.00;;;25.60
15079;BMP180;6932;51.438;5.470;2023-06-24T04:28:24;102087.00;;;25.70
15079;BMP180;6932;51.438;5.470;2023-06-24T04:30:51;102086.00;;;25.70
15079;BMP180;6932;51.438;5.470;2023-06-24T04:33:17;102086.00;;;25.80
15079;BMP180;6932;51.438;5.470;2023-06-24T04:35:43;102091.00;;;25.80
15079;BMP180;6932;51.438;5.470;2023-06-24T04:38:10;102084.00;;;25.90
15079;BMP180;6932;51.438;5.470;2023-06-24T04:40:36;102094.00;;;26.00
15079;BMP180;6932;51.438;5.470;2023-06-24T04:43:02;102094.00;;;26.10
15079;BMP180;6932;51.438;5.470;2023-06-24T04:45:28;102084.00;;;26.10
15079;BMP180;6932;51.438;5.470;2023-06-24T04:47:54;102089.00;;;26.10
15079;BMP180;6932;51.438;5.470;2023-06-24T04:50:20;102084.00;;;26.10
15079;BMP180;6932;51.438;5.470;2023-06-24T04:52:52;102086.00;;;26.20
15079;BMP180;6932;51.438;5.470;2023-06-24T04:55:18;102079.00;;;26.30
15079;BMP180;6932;51.438;5.470;2023-06-24T04:57:44;102073.00;;;26.30
15079;BMP180;6932;51.438;5.470;2023-06-24T05:00:10;102077.00;;;26.40
15079;BMP180;6932;51.438;5.470;2023-06-24T05:02:36;102078.00;;;26.40
15079;BMP180;6932;51.438;5.470;2023-06-24T05:05:02;102075.00;;;26.50
15079;BMP180;6932;51.438;5.470;2023-06-24T05:07:28;102070.00;;;26.50
15079;BMP180;6932;51.438;5.470;2023-06-24T05:09:53;102080.00;;;26.60
15079;BMP180;6932;51.438;5.470;2023-06-24T05:12:19;102075.00;;;26.70
15079;BMP180;6932;51.438;5.470;2023-06-24T05:14:50;102078.00;;;26.80
15079;BMP180;6932;51.438;5.470;2023-06-24T05:17:18;102075.00;;;26.80
15079;BMP180;6932;51.438;5.470;2023-06-24T05:19:44;102078.00;;;26.90
15079;BMP180;6932;51.438;5.470;2023-06-24T05:22:10;102078.00;;;27.00
15079;BMP180;6932;51.438;5.470;2023-06-24T05:24:36;102083.00;;;27.10
15079;BMP180;6932;51.438;5.470;2023-06-24T05:27:06;102080.00;;;27.20
15079;BMP180;6932;51.438;5.470;2023-06-24T05:29:33;102075.00;;;27.30
15079;BMP180;6932;51.438;5.470;2023-06-24T05:32:00;102079.00;;;27.40
15079;BMP180;6932;51.438;5.470;2023-06-24T05:34:27;102077.00;;;27.50
15079;BMP180;6932;51.438;5.470;2023-06-24T05:36:53;102078.00;;;27.60
15079;BMP180;6932;51.438;5.470;2023-06-24T05:39:20;102075.00;;;27.60
15079;BMP180;6932;51.438;5.470;2023-06-24T05:41:46;102077.00;;;27.70
15079;BMP180;6932;51.438;5.470;2023-06-24T05:44:14;102086.00;;;27.80
15079;BMP180;6932;51.438;5.470;2023-06-24T05:46:40;102093.00;;;27.90
15079;BMP180;6932;51.438;5.470;2023-06-24T05:49:06;102091.00;;;27.90
15079;BMP180;6932;51.438;5.470;2023-06-24T05:51:31;102088.00;;;28.00
15079;BMP180;6932;51.438;5.470;2023-06-24T05:53:57;102088.00;;;28.10
15079;BMP180;6932;51.438;5.470;2023-06-24T05:56:23;102093.00;;;28.20
15079;BMP180;6932;51.438;5.470;2023-06-24T05:58:49;102082.00;;;28.40
15079;BMP180;6932;51.438;5.470;2023-06-24T06:01:15;102089.00;;;28.50
15079;BMP180;6932;51.438;5.470;2023-06-24T06:03:41;102087.00;;;28.60
15079;BMP180;6932;51.438;5.470;2023-06-24T06:06:07;102085.00;;;28.60
15079;BMP180;6932;51.438;5.470;2023-06-24T06:08:33;102077.00;;;28.70
15079;BMP180;6932;51.438;5.470;2023-06-24T06:11:00;102088.00;;;28.80
15079;BMP180;6932;51.438;5.470;2023-06-24T06:13:28;102095.00;;;28.80
15079;BMP180;6932;51.438;5.470;2023-06-24T06:15:55;102084.00;;;28.80
15079;BMP180;6932;51.438;5.470;2023-06-24T06:18:20;102085.00;;;28.80
15079;BMP180;6932;51.438;5.470;2023-06-24T06:20:46;102091.00;;;28.80
15079;BMP180;6932;51.438;5.470;2023-06-24T06:23:12;102088.00;;;28.90
15079;BMP180;6932;51.438;5.470;2023-06-24T06:25:38;102089.00;;;28.90
15079;BMP180;6932;51.438;5.470;2023-06-24T06:28:04;102094.00;;;29.00
15079;BMP180;6932;51.438;5.470;2023-06-24T06:30:30;102086.00;;;29.10
15079;BMP180;6932;51.438;5.470;2023-06-24T06:32:56;102087.00;;;29.20
15079;BMP180;6932;51.438;5.470;2023-06-24T06:35:22;102099.00;;;29.30
15079;BMP180;6932;51.438;5.470;2023-06-24T06:37:47;102087.00;;;29.40
15079;BMP180;6932;51.438;5.470;2023-06-24T06:40:21;102100.00;;;29.50
15079;BMP180;6932;51.438;5.470;2023-06-24T06:42:47;102110.00;;;29.60
15079;BMP180;6932;51.438;5.470;2023-06-24T06:45:14;102100.00;;;29.70
15079;BMP180;6932;51.438;5.470;2023-06-24T06:47:40;102101.00;;;29.80
15079;BMP180;6932;51.438;5.470;2023-06-24T06:50:06;102108.00;;;29.90
15079;BMP180;6932;51.438;5.470;2023-06-24T06:52:33;102107.00;;;29.90
15079;BMP180;6932;51.438;5.470;2023-06-24T06:54:59;102116.00;;;29.90
15079;BMP180;6932;51.438;5.470;2023-06-24T06:57:25;102117.00;;;29.90
15079;BMP180;6932;51.438;5.470;2023-06-24T06:59:51;102112.00;;;29.90
15079;BMP180;6932;51.438;5.470;2023-06-24T07:02:18;102125.00;;;29.90
15079;BMP180;6932;51.438;5.470;2023-06-24T07:04:44;102133.00;;;30.00
15079;BMP180;6932;51.438;5.470;2023-06-24T07:07:10;102133.00;;;30.00
15079;BMP180;6932;51.438;5.470;2023-06-24T07:09:37;102140.00;;;30.10
15079;BMP180;6932;51.438;5.470;2023-06-24T07:12:03;102131.00;;;30.20
15079;BMP180;6932;51.438;5.470;2023-06-24T07:14:29;102120.00;;;30.30
15079;BMP180;6932;51.438;5.470;2023-06-24T07:16:55;102132.00;;;30.30
15079;BMP180;6932;51.438;5.470;2023-06-24T07:19:20;102135.00;;;30.40
15079;BMP180;6932;51.438;5.470;2023-06-24T07:21:46;102134.00;;;30.40
15079;BMP180;6932;51.438;5.470;2023-06-24T07:24:12;102138.00;;;30.40
15079;BMP180;6932;51.438;5.470;2023-06-24T07:26:38;102140.00;;;30.50
15079;BMP180;6932;51.438;5.470;2023-06-24T07:29:07;102133.00;;;30.70
15079;BMP180;6932;51.438;5.470;2023-06-24T07:31:36;102131.00;;;30.80
15079;BMP180;6932;51.438;5.470;2023-06-24T07:34:02;102136.00;;;30.90
15079;BMP180;6932;51.438;5.470;2023-06-24T07:36:28;102125.00;;;31.10
15079;BMP180;6932;51.438;5.470;2023-06-24T07:38:54;102134.00;;;31.20
15079;BMP180;6932;51.438;5.470;2023-06-24T07:41:19;102122.00;;;31.30
15079;BMP180;6932;51.438;5.470;2023-06-24T07:43:45;102130.00;;;31.40
15079;BMP180;6932;51.438;5.470;2023-06-24T07:46:11;102136.00;;;31.50
15079;BMP180;6932;51.438;5.470;2023-06-24T07:48:37;102137.00;;;31.50
15079;BMP180;6932;51.438;5.470;2023-06-24T07:51:03;102133.00;;;31.50
15079;BMP180;6932;51.438;5.470;2023-06-24T07:53:28;102133.00;;;31.60
15079;BMP180;6932;51.438;5.470;2023-06-24T07:55:54;102119.00;;;31.60
15079;BMP180;6932;51.438;5.470;2023-06-24T07:58:20;102136.00;;;31.70
15079;BMP180;6932;51.438;5.470;2023-06-24T08:00:46;102134.00;;;31.70
15079;BMP180;6932;51.438;5.470;2023-06-24T08:03:13;102125.00;;;31.80
15079;BMP180;6932;51.438;5.470;2023-06-24T08:05:39;102119.00;;;31.80
15079;BMP180;6932;51.438;5.470;2023-06-24T08:08:05;102129.00;;;31.80
15079;BMP180;6932;51.438;5.470;2023-06-24T08:10:32;102121.00;;;31.80
15079;BMP180;6932;51.438;5.470;2023-06-24T08:12:58;102128.00;;;31.90
15079;BMP180;6932;51.438;5.470;2023-06-24T08:15:23;102136.00;;;31.90
15079;BMP180;6932;51.438;5.470;2023-06-24T08:17:53;102121.00;;;32.00
15079;BMP180;6932;51.438;5.470;2023-06-24T08:20:23;102146.00;;;32.00
15079;BMP180;6932;51.438;5.470;2023-06-24T08:22:49;102143.00;;;32.10
15079;BMP180;6932;51.438;5.470;2023-06-24T08:25:15;102142.00;;;32.20
15079;BMP180;6932;51.438;5.470;2023-06-24T08:27:41;102141.00;;;32.30
15079;BMP180;6932;51.438;5.470;2023-06-24T08:30:09;102145.00;;;32.40
15079;BMP180;6932;51.438;5.470;2023-06-24T08:32:36;102143.00;;;32.50
15079;BMP180;6932;51.438;5.470;2023-06-24T08:35:01;102135.00;;;32.60
15079;BMP180;6932;51.438;5.470;2023-06-24T08:37:27;102146.00;;;32.70
15079;BMP180;6932;51.438;5.470;2023-06-24T08:39:53;102149.00;;;32.80
15079;BMP180;6932;51.438;5.470;2023-06-24T08:42:19;102151.00;;;32.80
15079;BMP180;6932;51.438;5.470;2023-06-24T08:44:44;102133.00;;;32.90
15079;BMP180;6932;51.438;5.470;2023-06-24T08:47:11;102134.00;;;32.90
15079;BMP180;6932;51.438;5.470;2023-06-24T08:49:48;102117.00;;;33.00
15079;BMP180;6932;51.438;5.470;2023-06-24T08:52:16;102125.00;;;33.00
15079;BMP180;6932;51.438;5.470;2023-06-24T08:54:50;102125.00;;;33.00
15079;BMP180;6932;51.438;5.470;2023-06-24T08:57:16;102134.00;;;33.00
15079;BMP180;6932;51.438;5.470;2023-06-24T08:59:42;102130.00;;;33.00
15079;BMP180;6932;51.438;5.470;2023-06-24T09:02:08;102132.00;;;33.10
15079;BMP180;6932;51.438;5.470;2023-06-24T09:04:34;102129.00;;;33.10
15079;BMP180;6932;51.438;5.470;2023-06-24T09:07:00;102114.00;;;33.10
15079;BMP180;6932;51.438;5.470;2023-06-24T09:09:26;102128.00;;;33.20
15079;BMP180;6932;51.438;5.470;2023-06-24T09:11:56;102119.00;;;33.20
15079;BMP180;6932;51.438;5.470;2023-06-24T09:14:25;102131.00;;;33.20
15079;BMP180;6932;51.438;5.470;2023-06-24T09:19:36;102117.00;;;33.30
15079;BMP180;6932;51.438;5.470;2023-06-24T09:22:07;102112.00;;;33.30
15079;BMP180;6932;51.438;5.470;2023-06-24T09:24:35;102118.00;;;33.40
15079;BMP180;6932;51.438;5.470;2023-06-24T09:27:02;102109.00;;;33.40
15079;BMP180;6932;51.438;5.470;2023-06-24T09:29:33;102112.00;;;33.50
15079;BMP180;6932;51.438;5.470;2023-06-24T09:31:59;102102.00;;;33.50
15079;BMP180;6932;51.438;5.470;2023-06-24T09:34:28;102107.00;;;33.50
15079;BMP180;6932;51.438;5.470;2023-06-24T09:36:56;102105.00;;;33.60
15079;BMP180;6932;51.438;5.470;2023-06-24T09:39:23;102100.00;;;33.60
15079;BMP180;6932;51.438;5.470;2023-06-24T09:42:00;102105.00;;;33.70
15079;BMP180;6932;51.438;5.470;2023-06-24T09:44:27;102100.00;;;33.70
15079;BMP180;6932;51.438;5.470;2023-06-24T09:46:54;102095.00;;;33.80
15079;BMP180;6932;51.438;5.470;2023-06-24T09:49:22;102089.00;;;33.80
15079;BMP180;6932;51.438;5.470;2023-06-24T09:51:56;102089.00;;;33.80
15079;BMP180;6932;51.438;5.470;2023-06-24T09:54:28;102094.00;;;33.80
15079;BMP180;6932;51.438;5.470;2023-06-24T09:56:58;102091.00;;;33.80
15079;BMP180;6932;51.438;5.470;2023-06-24T09:59:26;102090.00;;;33.80
15079;BMP180;6932;51.438;5.470;2023-06-24T10:01:56;102090.00;;;33.80
15079;BMP180;6932;51.438;5.470;2023-06-24T10:04:24;102094.00;;;33.80
15079;BMP180;6932;51.438;5.470;2023-06-24T10:06:52;102092.00;;;33.70
15079;BMP180;6932;51.438;5.470;2023-06-24T10:09:18;102093.00;;;33.80
15079;BMP180;6932;51.438;5.470;2023-06-24T10:11:46;102085.00;;;33.80
15079;BMP180;6932;51.438;5.470;2023-06-24T10:14:14;102086.00;;;33.80
15079;BMP180;6932;51.438;5.470;2023-06-24T10:16:41;102089.00;;;33.90
15079;BMP180;6932;51.438;5.470;2023-06-24T10:19:07;102087.00;;;33.90
15079;BMP180;6932;51.438;5.470;2023-06-24T10:21:54;102090.00;;;34.00
15079;BMP180;6932;51.438;5.470;2023-06-24T10:24:37;102087.00;;;34.00
15079;BMP180;6932;51.438;5.470;2023-06-24T10:27:39;102087.00;;;34.10
15079;BMP180;6932;51.438;5.470;2023-06-24T10:30:08;102079.00;;;34.10
15079;BMP180;6932;51.438;5.470;2023-06-24T10:32:43;102072.00;;;34.20
15079;BMP180;6932;51.438;5.470;2023-06-24T10:35:26;102081.00;;;34.20
15079;BMP180;6932;51.438;5.470;2023-06-24T10:38:00;102075.00;;;34.20
15079;BMP180;6932;51.438;5.470;2023-06-24T10:40:41;102076.00;;;34.20
15079;BMP180;6932;51.438;5.470;2023-06-24T10:43:27;102075.00;;;34.20
15079;BMP180;6932;51.438;5.470;2023-06-24T10:45:57;102070.00;;;34.20
15079;BMP180;6932;51.438;5.470;2023-06-24T10:48:24;102072.00;;;34.20
15079;BMP180;6932;51.438;5.470;2023-06-24T10:50:51;102069.00;;;34.20
15079;BMP180;6932;51.438;5.470;2023-06-24T10:53:17;102065.00;;;34.20
15079;BMP180;6932;51.438;5.470;2023-06-24T10:55:44;102054.00;;;34.20
15079;BMP180;6932;51.438;5.470;2023-06-24T10:58:14;102067.00;;;34.20
15079;BMP180;6932;51.438;5.470;2023-06-24T11:00:42;102069.00;;;34.30
15079;BMP180;6932;51.438;5.470;2023-06-24T11:03:14;102060.00;;;34.30
15079;BMP180;6932;51.438;5.470;2023-06-24T11:05:43;102058.00;;;34.40
15079;BMP180;6932;51.438;5.470;2023-06-24T11:08:10;102059.00;;;34.40
15079;BMP180;6932;51.438;5.470;2023-06-24T11:10:47;102054.00;;;34.40
15079;BMP180;6932;51.438;5.470;2023-06-24T11:13:14;102058.00;;;34.40
15079;BMP180;6932;51.438;5.470;2023-06-24T11:15:40;102054.00;;;34.40
15079;BMP180;6932;51.438;5.470;2023-06-24T11:18:11;102048.00;;;34.50
15079;BMP180;6932;51.438;5.470;2023-06-24T11:20:38;102048.00;;;34.50
15079;BMP180;6932;51.438;5.470;2023-06-24T11:23:08;102050.00;;;34.50
15079;BMP180;6932;51.438;5.470;2023-06-24T11:25:40;102037.00;;;34.50
15079;BMP180;6932;51.438;5.470;2023-06-24T11:28:22;102040.00;;;34.50
15079;BMP180;6932;51.438;5.470;2023-06-24T11:30:48;102042.00;;;34.40
15079;BMP180;6932;51.438;5.470;2023-06-24T11:33:27;102042.00;;;34.40
15079;BMP180;6932;51.438;5.470;2023-06-24T11:35:53;102034.00;;;34.40
15079;BMP180;6932;51.438;5.470;2023-06-24T11:38:19;102038.00;;;34.40
15079;BMP180;6932;51.438;5.470;2023-06-24T11:40:48;102038.00;;;34.40
15079;BMP180;6932;51.438;5.470;2023-06-24T11:43:14;102035.00;;;34.40
15079;BMP180;6932;51.438;5.470;2023-06-24T11:45:39;102027.00;;;34.40
15079;BMP180;6932;51.438;5.470;2023-06-24T11:48:06;102031.00;;;34.50
15079;BMP180;6932;51.438;5.470;2023-06-24T11:50:35;102024.00;;;34.50
15079;BMP180;6932;51.438;5.470;2023-06-24T11:53:01;102021.00;;;34.50
15079;BMP180;6932;51.438;5.470;2023-06-24T11:55:27;102029.00;;;34.50
15079;BMP180;6932;51.438;5.470;2023-06-24T11:57:59;102028.00;;;34.50
15079;BMP180;6932;51.438;5.470;2023-06-24T12:00:31;102026.00;;;34.50
15079;BMP180;6932;51.438;5.470;2023-06-24T12:03:00;102028.00;;;34.40
15079;BMP180;6932;51.438;5.470;2023-06-24T12:05:32;102015.00;;;34.40
15079;BMP180;6932;51.438;5.470;2023-06-24T12:10:27;102019.00;;;34.20
15079;BMP180;6932;51.438;5.470;2023-06-24T12:12:55;102011.00;;;34.20
15079;BMP180;6932;51.438;5.470;2023-06-24T12:15:21;102013.00;;;34.40
15079;BMP180;6932;51.438;5.470;2023-06-24T12:17:47;102011.00;;;34.30
15079;BMP180;6932;51.438;5.470;2023-06-24T12:20:14;102007.00;;;34.40
15079;BMP180;6932;51.438;5.470;2023-06-24T12:22:47;102011.00;;;34.40
15079;BMP180;6932;51.438;5.470;2023-06-24T12:25:13;102009.00;;;34.30
15079;BMP180;6932;51.438;5.470;2023-06-24T12:27:42;102002.00;;;34.30
15079;BMP180;6932;51.438;5.470;2023-06-24T12:30:09;101999.00;;;34.30
15079;BMP180;6932;51.438;5.470;2023-06-24T12:32:35;101999.00;;;34.30
15079;BMP180;6932;51.438;5.470;2023-06-24T12:35:01;101996.00;;;34.20
15079;BMP180;6932;51.438;5.470;2023-06-24T12:37:31;101994.00;;;34.20
15079;BMP180;6932;51.438;5.470;2023-06-24T12:40:01;101996.00;;;34.10
15079;BMP180;6932;51.438;5.470;2023-06-24T12:42:27;101993.00;;;34.10
15079;BMP180;6932;51.438;5.470;2023-06-24T12:44:54;101991.00;;;34.00
15079;BMP180;6932;51.438;5.470;2023-06-24T12:47:21;101995.00;;;34.00
15079;BMP180;6932;51.438;5.470;2023-06-24T12:49:47;101999.00;;;34.00
15079;BMP180;6932;51.438;5.470;2023-06-24T12:52:13;101981.00;;;34.00
15079;BMP180;6932;51.438;5.470;2023-06-24T12:54:40;101989.00;;;33.90
15079;BMP180;6932;51.438;5.470;2023-06-24T12:57:06;101996.00;;;33.90
15079;BMP180;6932;51.438;5.470;2023-06-24T12:59:32;101993.00;;;33.80
15079;BMP180;6932;51.438;5.470;2023-06-24T13:01:58;101988.00;;;33.80
15079;BMP180;6932;51.438;5.470;2023-06-24T13:04:24;101981.00;;;33.80
15079;BMP180;6932;51.438;5.470;2023-06-24T13:06:51;101992.00;;;33.80
15079;BMP180;6932;51.438;5.470;2023-06-24T13:09:17;101985.00;;;33.90
15079;BMP180;6932;51.438;5.470;2023-06-24T13:11:43;101986.00;;;33.90
15079;BMP180;6932;51.438;5.470;2023-06-24T13:14:09;101986.00;;;33.90
15079;BMP180;6932;51.438;5.470;2023-06-24T13:16:36;101975.00;;;33.90
15079;BMP180;6932;51.438;5.470;2023-06-24T13:19:02;101984.00;;;33.90
15079;BMP180;6932;51.438;5.470;2023-06-24T13:21:28;101983.00;;;34.00
15079;BMP180;6932;51.438;5.470;2023-06-24T13:23:54;101977.00;;;33.90
15079;BMP180;6932;51.438;5.470;2023-06-24T13:26:20;101980.00;;;33.90
15079;BMP180;6932;51.438;5.470;2023-06-24T13:28:45;101969.00;;;33.80
15079;BMP180;6932;51.438;5.470;2023-06-24T13:31:11;101970.00;;;33.80
15079;BMP180;6932;51.438;5.470;2023-06-24T13:33:37;101968.00;;;33.70
15079;BMP180;6932;51.438;5.470;2023-06-24T13:36:07;101969.00;;;33.70
15079;BMP180;6932;51.438;5.470;2023-06-24T13:38:33;101969.00;;;33.60
15079;BMP180;6932;51.438;5.470;2023-06-24T13:40:59;101967.00;;;33.70
15079;BMP180;6932;51.438;5.470;2023-06-24T13:43:24;101967.00;;;33.70
15079;BMP180;6932;51.438;5.470;2023-06-24T13:45:51;101963.00;;;33.70
15079;BMP180;6932;51.438;5.470;2023-06-24T13:48:17;101963.00;;;33.70
15079;BMP180;6932;51.438;5.470;2023-06-24T13:50:43;101962.00;;;33.70
15079;BMP180;6932;51.438;5.470;2023-06-24T13:53:08;101959.00;;;33.70
15079;BMP180;6932;51.438;5.470;2023-06-24T13:55:34;101959.00;;;33.70
15079;BMP180;6932;51.438;5.470;2023-06-24T13:58:02;101956.00;;;33.70
15079;BMP180;6932;51.438;5.470;2023-06-24T14:00:28;101958.00;;;33.80
15079;BMP180;6932;51.438;5.470;2023-06-24T14:02:53;101954.00;;;33.80
15079;BMP180;6932;51.438;5.470;2023-06-24T14:05:20;101950.00;;;33.80
15079;BMP180;6932;51.438;5.470;2023-06-24T14:07:46;101955.00;;;33.80
15079;BMP180;6932;51.438;5.470;2023-06-24T14:10:12;101959.00;;;33.90
15079;BMP180;6932;51.438;5.470;2023-06-24T14:12:38;101960.00;;;33.90
15079;BMP180;6932;51.438;5.470;2023-06-24T14:15:05;101950.00;;;33.90
15079;BMP180;6932;51.438;5.470;2023-06-24T14:17:30;101952.00;;;33.90
15079;BMP180;6932;51.438;5.470;2023-06-24T14:19:56;101948.00;;;33.90
15079;BMP180;6932;51.438;5.470;2023-06-24T14:22:22;101856.00;;;33.90
15079;BMP180;6932;51.438;5.470;2023-06-24T14:24:48;101870.00;;;33.80
15079;BMP180;6932;51.438;5.470;2023-06-24T14:27:14;101847.00;;;33.80